createdAt,value
2018-06-18T00:00:37.021Z,13.65
2018-06-18T00:01:36.933Z,13.64
2018-06-18T00:02:36.967Z,13.64
2018-06-18T00:03:36.960Z,13.65
2018-06-18T00:04:36.975Z,13.72
2018-06-18T00:05:37.033Z,13.76
2018-06-18T00:06:37.034Z,13.80
2018-06-18T00:07:36.969Z,13.80
2018-06-18T00:08:36.966Z,13.81
2018-06-18T00:09:37.035Z,13.83
2018-06-18T00:10:36.973Z,13.84
2018-06-18T00:11:37.037Z,13.84
2018-06-18T00:12:37.015Z,13.83
2018-06-18T00:13:37.005Z,13.83
2018-06-18T00:14:37.063Z,13.88
2018-06-18T00:15:36.960Z,13.88
2018-06-18T00:16:36.947Z,13.88
2018-06-18T00:17:37.013Z,13.86
2018-06-18T00:18:37.055Z,13.88
2018-06-18T00:19:37.020Z,13.88
2018-06-18T00:20:36.939Z,13.86
2018-06-18T00:21:37.044Z,13.86
2018-06-18T00:22:37.003Z,13.91
2018-06-18T00:23:37.049Z,13.86
2018-06-18T00:24:36.981Z,13.86
2018-06-18T00:25:37.046Z,13.88
2018-06-18T00:26:37.045Z,13.89
2018-06-18T00:27:37.080Z,13.91
2018-06-18T00:28:37.014Z,13.91
2018-06-18T00:29:36.984Z,13.91
2018-06-18T00:30:37.013Z,13.92
2018-06-18T00:31:37.034Z,13.91
2018-06-18T00:32:37.071Z,13.91
2018-06-18T00:33:37.083Z,13.91
2018-06-18T00:34:37.081Z,13.91
2018-06-18T00:35:37.030Z,13.91
2018-06-18T00:36:37.090Z,13.91
2018-06-18T00:37:36.950Z,13.91
2018-06-18T00:38:37.089Z,13.89
2018-06-18T00:39:37.131Z,13.88
2018-06-18T00:40:37.089Z,13.86
2018-06-18T00:41:37.088Z,13.88
2018-06-18T00:42:37.014Z,13.86
2018-06-18T00:43:37.098Z,13.86
2018-06-18T00:44:37.014Z,13.86
2018-06-18T00:45:37.034Z,13.86
2018-06-18T00:46:37.000Z,13.88
2018-06-18T00:47:37.091Z,13.89
2018-06-18T00:48:37.037Z,13.91
2018-06-18T00:49:37.088Z,13.92
2018-06-18T00:50:37.085Z,13.95
2018-06-18T00:51:36.983Z,13.95
2018-06-18T00:52:36.966Z,13.96
2018-06-18T00:53:37.023Z,13.99
2018-06-18T00:54:37.065Z,14.03
2018-06-18T00:55:37.100Z,14.03
2018-06-18T00:56:36.992Z,14.04
2018-06-18T00:57:36.990Z,14.03
2018-06-18T00:58:37.100Z,14.04
2018-06-18T00:59:37.045Z,14.06
2018-06-18T01:00:37.103Z,14.07
2018-06-18T01:01:37.035Z,14.07
2018-06-18T01:02:37.131Z,14.07
2018-06-18T01:03:36.968Z,14.06
2018-06-18T01:04:37.072Z,14.07
2018-06-18T01:05:37.013Z,14.07
2018-06-18T01:06:37.106Z,14.07
2018-06-18T01:07:37.073Z,14.07
2018-06-18T01:08:36.974Z,14.07
2018-06-18T01:09:37.108Z,14.07
2018-06-18T01:10:37.076Z,14.07
2018-06-18T01:11:37.055Z,14.09
2018-06-18T01:12:36.994Z,14.07
2018-06-18T01:13:37.069Z,14.09
2018-06-18T01:14:37.068Z,14.07
2018-06-18T01:15:37.070Z,14.07
2018-06-18T01:16:37.037Z,14.07
2018-06-18T01:17:37.067Z,14.09
2018-06-18T01:18:36.958Z,14.06
2018-06-18T01:19:36.987Z,14.06
2018-06-18T01:20:36.989Z,14.04
2018-06-18T01:21:37.084Z,14.04
2018-06-18T01:22:37.006Z,14.03
2018-06-18T01:23:37.063Z,14.03
2018-06-18T01:24:37.061Z,14.02
2018-06-18T01:25:36.989Z,14.02
2018-06-18T01:26:37.084Z,14.00
2018-06-18T01:27:37.036Z,14.00
2018-06-18T01:28:37.010Z,14.00
2018-06-18T01:29:37.107Z,13.99
2018-06-18T01:30:37.148Z,14.00
2018-06-18T01:31:37.006Z,14.02
2018-06-18T01:32:37.061Z,14.02
2018-06-18T01:33:37.096Z,14.03
2018-06-18T01:34:37.097Z,14.07
2018-06-18T01:35:37.093Z,14.09
2018-06-18T01:36:37.028Z,14.11
2018-06-18T01:37:37.027Z,14.11
2018-06-18T01:38:37.031Z,14.13
2018-06-18T01:39:37.028Z,14.13
2018-06-18T01:40:37.028Z,14.13
2018-06-18T01:41:37.101Z,14.11
2018-06-18T01:42:37.034Z,14.13
2018-06-18T01:43:37.101Z,14.13
2018-06-18T01:44:37.118Z,14.14
2018-06-18T01:45:37.038Z,14.13
2018-06-18T01:46:37.042Z,14.11
2018-06-18T01:47:37.036Z,14.13
2018-06-18T01:48:37.110Z,14.11
2018-06-18T01:49:37.104Z,14.10
2018-06-18T01:50:37.103Z,14.10
2018-06-18T01:51:37.041Z,14.09
2018-06-18T01:52:37.043Z,14.07
2018-06-18T01:53:37.077Z,14.07
2018-06-18T01:54:37.077Z,14.04
2018-06-18T01:55:37.131Z,14.03
2018-06-18T01:56:37.183Z,14.02
2018-06-18T01:57:37.104Z,14.02
2018-06-18T01:58:37.110Z,14.00
2018-06-18T01:59:37.112Z,13.98
2018-06-18T02:00:37.113Z,13.99
2018-06-18T02:01:37.142Z,13.98
2018-06-18T02:02:37.077Z,13.96
2018-06-18T02:03:37.030Z,13.98
2018-06-18T02:04:37.139Z,13.99
2018-06-18T02:05:37.085Z,13.99
2018-06-18T02:06:37.114Z,13.99
2018-06-18T02:07:37.118Z,14.00
2018-06-18T02:08:37.078Z,14.02
2018-06-18T02:09:37.020Z,14.02
2018-06-18T02:10:37.077Z,14.03
2018-06-18T02:11:37.090Z,14.03
2018-06-18T02:12:37.054Z,14.04
2018-06-18T02:13:37.041Z,14.06
2018-06-18T02:14:37.073Z,14.09
2018-06-18T02:15:37.118Z,14.10
2018-06-18T02:16:37.082Z,14.14
2018-06-18T02:17:37.040Z,14.11
2018-06-18T02:18:37.063Z,14.10
2018-06-18T02:19:37.119Z,14.10
2018-06-18T02:20:37.039Z,14.07
2018-06-18T02:21:37.113Z,14.07
2018-06-18T02:22:37.118Z,14.04
2018-06-18T02:23:37.084Z,14.02
2018-06-18T02:24:37.088Z,14.03
2018-06-18T02:25:37.166Z,14.02
2018-06-18T02:26:37.153Z,14.00
2018-06-18T02:27:37.050Z,13.99
2018-06-18T02:28:37.029Z,13.98
2018-06-18T02:29:37.170Z,13.96
2018-06-18T02:30:37.155Z,13.96
2018-06-18T02:31:37.035Z,13.96
2018-06-18T02:32:37.129Z,13.95
2018-06-18T02:33:37.071Z,13.95
2018-06-18T02:34:37.177Z,13.95
2018-06-18T02:35:37.037Z,13.96
2018-06-18T02:36:37.161Z,13.93
2018-06-18T02:37:37.189Z,13.93
2018-06-18T02:38:37.198Z,13.92
2018-06-18T02:39:37.160Z,13.95
2018-06-18T02:40:37.157Z,13.93
2018-06-18T02:41:37.072Z,13.95
2018-06-18T02:42:37.167Z,13.96
2018-06-18T02:43:37.137Z,13.95
2018-06-18T02:44:37.070Z,13.95
2018-06-18T02:45:37.137Z,13.96
2018-06-18T02:46:37.177Z,13.96
2018-06-18T02:47:37.140Z,13.98
2018-06-18T02:48:37.099Z,13.96
2018-06-18T02:49:37.170Z,13.98
2018-06-18T02:50:37.078Z,13.96
2018-06-18T02:51:37.102Z,13.98
2018-06-18T02:52:37.139Z,13.99
2018-06-18T02:53:37.181Z,13.99
2018-06-18T02:54:37.148Z,14.02
2018-06-18T02:55:37.145Z,14.00
2018-06-18T02:56:37.185Z,13.99
2018-06-18T02:57:37.086Z,13.99
2018-06-18T02:58:41.614Z,14.00
2018-06-18T02:59:37.154Z,14.00
2018-06-18T03:00:37.082Z,14.00
2018-06-18T03:01:37.151Z,14.00
2018-06-18T03:02:37.156Z,13.99
2018-06-18T03:03:37.156Z,14.00
2018-06-18T03:04:37.088Z,14.00
2018-06-18T03:05:37.125Z,14.00
2018-06-18T03:06:37.093Z,14.00
2018-06-18T03:07:37.155Z,14.00
2018-06-18T03:08:37.193Z,14.00
2018-06-18T03:09:37.172Z,13.99
2018-06-18T03:10:37.158Z,14.00
2018-06-18T03:11:37.118Z,14.00
2018-06-18T03:12:37.092Z,14.02
2018-06-18T03:13:37.137Z,14.02
2018-06-18T03:14:37.049Z,14.02
2018-06-18T03:15:37.054Z,14.03
2018-06-18T03:16:37.141Z,14.02
2018-06-18T03:17:37.122Z,14.02
2018-06-18T03:18:37.140Z,14.03
2018-06-18T03:19:37.110Z,14.03
2018-06-18T03:20:37.140Z,14.04
2018-06-18T03:21:37.088Z,14.04
2018-06-18T03:22:37.027Z,14.06
2018-06-18T03:23:37.225Z,14.06
2018-06-18T03:24:37.067Z,14.04
2018-06-18T03:25:37.180Z,14.04
2018-06-18T03:26:37.192Z,14.06
2018-06-18T03:27:37.169Z,14.06
2018-06-18T03:28:37.166Z,14.07
2018-06-18T03:29:37.207Z,14.06
2018-06-18T03:30:37.210Z,14.07
2018-06-18T03:31:37.116Z,14.09
2018-06-18T03:32:37.168Z,14.09
2018-06-18T03:33:37.175Z,14.09
2018-06-18T03:34:37.176Z,14.07
2018-06-18T03:35:37.125Z,14.09
2018-06-18T03:36:37.174Z,14.10
2018-06-18T03:37:37.106Z,14.10
2018-06-18T03:38:37.177Z,14.10
2018-06-18T03:39:37.174Z,14.10
2018-06-18T03:40:37.175Z,14.10
2018-06-18T03:41:37.175Z,14.11
2018-06-18T03:42:37.108Z,14.11
2018-06-18T03:43:37.147Z,14.10
2018-06-18T03:44:37.098Z,14.10
2018-06-18T03:45:37.204Z,14.10
2018-06-18T03:46:37.150Z,14.10
2018-06-18T03:47:37.159Z,14.10
2018-06-18T03:48:37.157Z,14.11
2018-06-18T03:49:37.192Z,14.11
2018-06-18T03:50:37.205Z,14.13
2018-06-18T03:51:37.112Z,14.13
2018-06-18T03:52:37.157Z,14.13
2018-06-18T03:53:37.091Z,14.14
2018-06-18T03:54:37.216Z,14.15
2018-06-18T03:55:37.157Z,14.15
2018-06-18T03:56:37.184Z,14.17
2018-06-18T03:57:37.212Z,14.17
2018-06-18T03:58:37.146Z,14.17
2018-06-18T03:59:37.094Z,14.20
2018-06-18T04:00:37.091Z,14.20
2018-06-18T04:01:37.215Z,14.21
2018-06-18T04:02:37.206Z,14.21
2018-06-18T04:03:37.186Z,14.24
2018-06-18T04:04:37.185Z,14.24
2018-06-18T04:05:37.307Z,14.27
2018-06-18T04:06:37.193Z,14.27
2018-06-18T04:07:37.147Z,14.29
2018-06-18T04:08:37.187Z,14.31
2018-06-18T04:09:37.129Z,14.32
2018-06-18T04:10:37.191Z,14.35
2018-06-18T04:11:37.130Z,14.36
2018-06-18T04:12:37.193Z,14.39
2018-06-18T04:13:37.099Z,14.40
2018-06-18T04:14:37.105Z,14.42
2018-06-18T04:15:37.226Z,14.44
2018-06-18T04:16:37.101Z,14.47
2018-06-18T04:17:37.171Z,14.49
2018-06-18T04:18:37.176Z,14.50
2018-06-18T04:19:37.228Z,14.53
2018-06-18T04:20:37.198Z,14.55
2018-06-18T04:21:37.123Z,14.57
2018-06-18T04:22:37.222Z,14.60
2018-06-18T04:23:37.163Z,14.64
2018-06-18T04:24:37.166Z,14.66
2018-06-18T04:25:37.239Z,14.71
2018-06-18T04:26:37.163Z,14.75
2018-06-18T04:27:37.204Z,14.78
2018-06-18T04:28:37.126Z,14.82
2018-06-18T04:29:37.179Z,14.84
2018-06-18T04:30:37.182Z,14.87
2018-06-18T04:31:37.235Z,14.92
2018-06-18T04:32:37.127Z,14.92
2018-06-18T04:33:37.211Z,14.95
2018-06-18T04:34:37.164Z,14.98
2018-06-18T04:35:37.141Z,15.02
2018-06-18T04:36:37.141Z,15.04
2018-06-18T04:37:37.226Z,15.06
2018-06-18T04:38:37.208Z,15.10
2018-06-18T04:39:37.150Z,15.11
2018-06-18T04:40:37.211Z,15.13
2018-06-18T04:41:37.211Z,15.15
2018-06-18T04:42:37.151Z,15.17
2018-06-18T04:43:37.214Z,15.19
2018-06-18T04:44:37.189Z,15.25
2018-06-18T04:45:37.174Z,15.28
2018-06-18T04:46:37.243Z,15.28
2018-06-18T04:47:37.125Z,15.29
2018-06-18T04:48:37.217Z,15.29
2018-06-18T04:49:37.193Z,15.29
2018-06-18T04:50:37.119Z,15.32
2018-06-18T04:51:37.189Z,15.33
2018-06-18T04:52:37.163Z,15.36
2018-06-18T04:53:37.250Z,15.39
2018-06-18T04:54:37.178Z,15.42
2018-06-18T04:55:37.180Z,15.47
2018-06-18T04:56:37.249Z,15.47
2018-06-18T04:57:37.254Z,15.51
2018-06-18T04:58:37.188Z,15.58
2018-06-18T04:59:37.244Z,15.64
2018-06-18T05:00:37.239Z,15.65
2018-06-18T05:01:37.185Z,15.66
2018-06-18T05:02:37.202Z,15.65
2018-06-18T05:03:37.167Z,15.69
2018-06-18T05:04:37.227Z,15.68
2018-06-18T05:05:37.229Z,15.65
2018-06-18T05:06:37.227Z,15.68
2018-06-18T05:07:37.215Z,15.68
2018-06-18T05:08:37.234Z,15.73
2018-06-18T05:09:37.167Z,15.75
2018-06-18T05:10:37.234Z,15.76
2018-06-18T05:11:37.254Z,15.80
2018-06-18T05:12:37.237Z,15.84
2018-06-18T05:13:37.236Z,15.90
2018-06-18T05:14:37.243Z,15.91
2018-06-18T05:15:37.245Z,15.95
2018-06-18T05:16:37.171Z,15.99
2018-06-18T05:17:37.168Z,16.03
2018-06-18T05:18:37.173Z,16.05
2018-06-18T05:19:37.178Z,16.06
2018-06-18T05:20:37.308Z,16.10
2018-06-18T05:21:37.174Z,16.17
2018-06-18T05:22:37.179Z,16.20
2018-06-18T05:23:37.241Z,16.18
2018-06-18T05:24:37.175Z,16.17
2018-06-18T05:25:37.172Z,16.17
2018-06-18T05:26:37.245Z,16.17
2018-06-18T05:27:37.176Z,16.16
2018-06-18T05:28:37.246Z,16.17
2018-06-18T05:29:37.176Z,16.18
2018-06-18T05:30:37.178Z,16.20
2018-06-18T05:31:37.252Z,16.20
2018-06-18T05:32:37.266Z,16.18
2018-06-18T05:33:37.248Z,16.22
2018-06-18T05:34:37.150Z,16.24
2018-06-18T05:35:37.282Z,16.28
2018-06-18T05:36:37.287Z,16.32
2018-06-18T05:37:37.159Z,16.39
2018-06-18T05:38:37.282Z,16.51
2018-06-18T05:39:37.298Z,16.55
2018-06-18T05:40:37.343Z,16.63
2018-06-18T05:41:37.259Z,16.65
2018-06-18T05:42:37.228Z,16.72
2018-06-18T05:43:37.222Z,16.81
2018-06-18T05:44:37.208Z,16.85
2018-06-18T05:45:37.218Z,16.85
2018-06-18T05:46:37.174Z,16.94
2018-06-18T05:47:37.284Z,16.99
2018-06-18T05:48:37.241Z,17.09
2018-06-18T05:49:37.185Z,17.26
2018-06-18T05:50:37.319Z,17.36
2018-06-18T05:51:37.296Z,17.36
2018-06-18T05:52:37.297Z,17.31
2018-06-18T05:53:37.241Z,17.36
2018-06-18T05:54:37.287Z,17.39
2018-06-18T05:55:37.264Z,17.50
2018-06-18T05:56:37.242Z,17.61
2018-06-18T05:57:37.240Z,17.79
2018-06-18T05:58:37.306Z,18.02
2018-06-18T05:59:37.165Z,18.13
2018-06-18T06:00:37.293Z,18.10
2018-06-18T06:01:37.266Z,18.06
2018-06-18T06:02:37.238Z,18.00
2018-06-18T06:03:37.218Z,17.95
2018-06-18T06:04:37.157Z,17.96
2018-06-18T06:05:37.204Z,18.05
2018-06-18T06:06:37.192Z,18.05
2018-06-18T06:07:37.170Z,18.02
2018-06-18T06:08:37.267Z,18.09
2018-06-18T06:09:37.259Z,18.06
2018-06-18T06:10:37.273Z,18.13
2018-06-18T06:11:37.192Z,18.09
2018-06-18T06:12:37.162Z,18.07
2018-06-18T06:13:37.234Z,18.07
2018-06-18T06:14:37.278Z,18.05
2018-06-18T06:15:37.296Z,18.00
2018-06-18T06:16:37.210Z,18.02
2018-06-18T06:17:37.212Z,18.05
2018-06-18T06:18:37.211Z,18.05
2018-06-18T06:19:37.211Z,18.03
2018-06-18T06:20:37.214Z,18.02
2018-06-18T06:21:37.315Z,18.07
2018-06-18T06:22:37.211Z,18.10
2018-06-18T06:23:37.297Z,18.16
2018-06-18T06:24:37.282Z,18.18
2018-06-18T06:25:37.282Z,18.17
2018-06-18T06:26:37.177Z,18.06
2018-06-18T06:27:37.321Z,17.94
2018-06-18T06:28:37.308Z,17.85
2018-06-18T06:29:37.291Z,17.80
2018-06-18T06:30:37.193Z,17.83
2018-06-18T06:31:37.262Z,17.80
2018-06-18T06:32:37.248Z,17.83
2018-06-18T06:33:37.206Z,17.83
2018-06-18T06:34:37.245Z,17.79
2018-06-18T06:35:37.245Z,17.80
2018-06-18T06:36:37.251Z,17.80
2018-06-18T06:37:37.254Z,17.84
2018-06-18T06:38:37.245Z,17.89
2018-06-18T06:39:37.292Z,17.88
2018-06-18T06:40:37.294Z,17.79
2018-06-18T06:41:37.269Z,17.80
2018-06-18T06:42:37.257Z,17.76
2018-06-18T06:43:37.320Z,17.72
2018-06-18T06:44:37.296Z,17.65
2018-06-18T06:45:37.236Z,17.61
2018-06-18T06:46:37.295Z,17.51
2018-06-18T06:47:37.228Z,17.44
2018-06-18T06:48:37.229Z,17.51
2018-06-18T06:49:37.311Z,17.53
2018-06-18T06:50:37.234Z,17.60
2018-06-18T06:51:37.235Z,17.61
2018-06-18T06:52:37.232Z,17.58
2018-06-18T06:53:37.238Z,17.57
2018-06-18T06:54:37.322Z,17.57
2018-06-18T06:55:37.261Z,17.62
2018-06-18T06:56:37.272Z,17.66
2018-06-18T06:57:37.331Z,17.75
2018-06-18T06:58:37.283Z,17.80
2018-06-18T06:59:37.261Z,17.88
2018-06-18T07:00:37.275Z,17.91
2018-06-18T07:01:37.285Z,17.98
2018-06-18T07:02:37.381Z,18.09
2018-06-18T07:03:37.332Z,18.20
2018-06-18T07:04:37.267Z,18.24
2018-06-18T07:05:37.246Z,18.31
2018-06-18T07:06:37.325Z,18.31
2018-06-18T07:07:37.275Z,18.38
2018-06-18T07:08:37.275Z,18.40
2018-06-18T07:09:37.333Z,18.44
2018-06-18T07:10:37.281Z,18.54
2018-06-18T07:11:37.273Z,18.51
2018-06-18T07:12:37.220Z,18.43
2018-06-18T07:13:37.407Z,18.44
2018-06-18T07:14:37.341Z,18.43
2018-06-18T07:15:37.353Z,18.35
2018-06-18T07:16:37.285Z,18.18
2018-06-18T07:17:37.327Z,18.14
2018-06-18T07:18:37.244Z,18.06
2018-06-18T07:19:37.261Z,18.10
2018-06-18T07:20:37.315Z,18.09
2018-06-18T07:21:37.224Z,18.07
2018-06-18T07:22:37.307Z,18.03
2018-06-18T07:23:37.342Z,18.05
2018-06-18T07:24:37.358Z,18.13
2018-06-18T07:25:37.321Z,18.14
2018-06-18T07:26:37.257Z,18.07
2018-06-18T07:27:37.327Z,18.10
2018-06-18T07:28:37.259Z,18.16
2018-06-18T07:29:37.326Z,18.17
2018-06-18T07:30:37.424Z,18.21
2018-06-18T07:31:37.326Z,18.29
2018-06-18T07:32:37.262Z,18.28
2018-06-18T07:33:37.330Z,18.28
2018-06-18T07:34:37.283Z,18.35
2018-06-18T07:35:37.325Z,18.40
2018-06-18T07:36:37.309Z,18.40
2018-06-18T07:37:37.332Z,18.48
2018-06-18T07:38:37.432Z,18.51
2018-06-18T07:39:37.316Z,18.57
2018-06-18T07:40:37.233Z,18.58
2018-06-18T07:41:37.309Z,18.73
2018-06-18T07:42:37.311Z,18.83
2018-06-18T07:43:37.365Z,18.91
2018-06-18T07:44:37.200Z,18.81
2018-06-18T07:45:37.297Z,18.86
2018-06-18T07:46:37.256Z,18.94
2018-06-18T07:47:37.315Z,19.05
2018-06-18T07:48:37.215Z,19.19
2018-06-18T07:49:37.203Z,19.19
2018-06-18T07:50:37.297Z,19.25
2018-06-18T07:51:37.326Z,19.31
2018-06-18T07:52:37.298Z,19.35
2018-06-18T07:53:37.230Z,19.40
2018-06-18T07:54:37.340Z,19.29
2018-06-18T07:55:37.341Z,19.27
2018-06-18T07:56:37.274Z,19.15
2018-06-18T07:57:37.313Z,19.10
2018-06-18T07:58:37.277Z,18.94
2018-06-18T07:59:37.280Z,18.87
2018-06-18T08:00:37.343Z,18.92
2018-06-18T08:01:37.306Z,18.99
2018-06-18T08:02:37.347Z,18.99
2018-06-18T08:03:37.384Z,19.09
2018-06-18T08:04:37.377Z,19.09
2018-06-18T08:05:37.388Z,19.16
2018-06-18T08:07:37.344Z,19.31
2018-06-18T08:08:37.370Z,19.33
2018-06-18T08:09:37.351Z,19.33
2018-06-18T08:10:37.328Z,19.38
2018-06-18T08:11:37.329Z,19.40
2018-06-18T08:12:37.316Z,19.39
2018-06-18T08:13:37.391Z,19.36
2018-06-18T08:14:37.353Z,19.32
2018-06-18T08:15:37.291Z,19.29
2018-06-18T08:16:37.354Z,19.35
2018-06-18T08:17:37.315Z,19.42
2018-06-18T08:18:37.356Z,19.53
2018-06-18T08:19:37.358Z,19.49
2018-06-18T08:20:37.291Z,19.35
2018-06-18T08:21:37.317Z,19.33
2018-06-18T08:22:37.257Z,19.25
2018-06-18T08:23:37.337Z,19.20
2018-06-18T08:24:37.380Z,19.19
2018-06-18T08:25:37.328Z,19.16
2018-06-18T08:26:37.331Z,19.05
2018-06-18T08:27:37.393Z,19.05
2018-06-18T08:28:37.330Z,19.03
2018-06-18T08:29:37.365Z,19.01
2018-06-18T08:30:37.333Z,19.03
2018-06-18T08:31:37.267Z,19.09
2018-06-18T08:32:37.387Z,19.08
2018-06-18T08:33:37.276Z,19.09
2018-06-18T08:34:37.268Z,19.05
2018-06-18T08:35:37.325Z,18.99
2018-06-18T08:36:37.345Z,18.97
2018-06-18T08:37:37.398Z,19.01
2018-06-18T08:38:37.390Z,19.10
2018-06-18T08:39:37.404Z,19.19
2018-06-18T08:40:37.397Z,19.28
2018-06-18T08:41:37.373Z,19.28
2018-06-18T08:42:37.301Z,19.33
2018-06-18T08:43:37.346Z,19.28
2018-06-18T08:44:37.372Z,19.27
2018-06-18T08:45:37.275Z,19.28
2018-06-18T08:46:37.416Z,19.28
2018-06-18T08:47:37.408Z,19.25
2018-06-18T08:48:37.409Z,19.20
2018-06-18T08:49:37.401Z,19.21
2018-06-18T08:50:37.447Z,19.20
2018-06-18T08:51:37.356Z,19.17
2018-06-18T08:52:37.377Z,19.12
2018-06-18T08:53:37.417Z,19.12
2018-06-18T08:54:37.313Z,19.15
2018-06-18T08:55:37.315Z,19.19
2018-06-18T08:56:37.380Z,19.17
2018-06-18T08:57:37.317Z,19.12
2018-06-18T08:58:37.383Z,19.13
2018-06-18T08:59:37.315Z,19.09
2018-06-18T09:00:37.386Z,19.15
2018-06-18T09:01:37.317Z,19.16
2018-06-18T09:02:37.275Z,19.21
2018-06-18T09:03:37.387Z,19.10
2018-06-18T09:04:37.413Z,19.09
2018-06-18T09:05:37.331Z,18.99
2018-06-18T09:06:37.386Z,19.05
2018-06-18T09:07:37.372Z,19.09
2018-06-18T09:08:37.355Z,19.03
2018-06-18T09:09:37.424Z,19.01
2018-06-18T09:10:37.394Z,18.95
2018-06-18T09:11:37.314Z,18.99
2018-06-18T09:12:37.393Z,19.06
2018-06-18T09:13:37.429Z,19.10
2018-06-18T09:14:37.375Z,19.17
2018-06-18T09:15:37.397Z,19.29
2018-06-18T09:16:37.299Z,19.31
2018-06-18T09:17:37.411Z,19.28
2018-06-18T09:18:37.323Z,19.21
2018-06-18T09:19:37.355Z,19.21
2018-06-18T09:20:37.410Z,19.25
2018-06-18T09:21:37.321Z,19.31
2018-06-18T09:22:37.398Z,19.42
2018-06-18T09:23:37.429Z,19.49
2018-06-18T09:24:37.366Z,19.51
2018-06-18T09:25:37.327Z,19.57
2018-06-18T09:26:37.389Z,19.60
2018-06-18T09:27:37.266Z,19.76
2018-06-18T09:28:37.288Z,19.87
2018-06-18T09:29:37.329Z,19.98
2018-06-18T09:30:37.356Z,20.02
2018-06-18T09:31:37.391Z,20.06
2018-06-18T09:32:37.416Z,19.98
2018-06-18T09:33:37.314Z,20.05
2018-06-18T09:34:37.221Z,20.18
2018-06-18T09:35:37.401Z,20.30
2018-06-18T09:36:37.367Z,20.46
2018-06-18T09:37:37.418Z,20.57
2018-06-18T09:38:37.409Z,20.61
2018-06-18T09:39:37.416Z,20.50
2018-06-18T09:40:37.313Z,20.36
2018-06-18T09:41:37.332Z,20.38
2018-06-18T09:42:37.388Z,20.35
2018-06-18T09:43:37.377Z,20.28
2018-06-18T09:44:37.316Z,20.27
2018-06-18T09:45:37.377Z,20.32
2018-06-18T09:46:37.453Z,20.32
2018-06-18T09:47:37.436Z,20.31
2018-06-18T09:48:37.451Z,20.38
2018-06-18T09:49:37.381Z,20.45
2018-06-18T09:50:37.443Z,20.52
2018-06-18T09:51:37.322Z,20.54
2018-06-18T09:52:37.395Z,20.60
2018-06-18T09:53:37.441Z,20.68
2018-06-18T09:54:37.374Z,20.88
2018-06-18T09:55:37.445Z,20.87
2018-06-18T09:56:37.450Z,20.94
2018-06-18T09:57:37.356Z,21.14
2018-06-18T09:58:37.445Z,21.20
2018-06-18T09:59:37.385Z,21.27
2018-06-18T10:00:37.361Z,21.32
2018-06-18T10:01:37.402Z,21.27
2018-06-18T10:02:37.453Z,21.04
2018-06-18T10:03:37.390Z,20.87
2018-06-18T10:04:37.424Z,20.88
2018-06-18T10:05:37.365Z,20.95
2018-06-18T10:06:37.426Z,20.99
2018-06-18T10:07:37.434Z,20.98
2018-06-18T10:08:37.505Z,21.06
2018-06-18T10:09:37.428Z,21.09
2018-06-18T10:10:37.487Z,21.16
2018-06-18T10:11:37.431Z,21.25
2018-06-18T10:12:37.368Z,21.28
2018-06-18T10:13:37.324Z,21.31
2018-06-18T10:14:37.333Z,21.32
2018-06-18T10:15:37.453Z,21.31
2018-06-18T10:16:37.335Z,21.27
2018-06-18T10:17:37.459Z,21.14
2018-06-18T10:18:37.413Z,21.18
2018-06-18T10:19:37.467Z,21.04
2018-06-18T10:20:37.401Z,20.97
2018-06-18T10:21:37.434Z,20.87
2018-06-18T10:22:37.410Z,20.84
2018-06-18T10:23:37.415Z,20.72
2018-06-18T10:24:37.461Z,20.76
2018-06-18T10:25:37.377Z,20.83
2018-06-18T10:26:37.407Z,20.69
2018-06-18T10:27:37.443Z,20.65
2018-06-18T10:28:37.500Z,20.70
2018-06-18T10:29:37.479Z,20.70
2018-06-18T10:30:37.383Z,20.64
2018-06-18T10:31:37.420Z,20.77
2018-06-18T10:32:37.446Z,20.83
2018-06-18T10:33:37.488Z,20.88
2018-06-18T10:34:37.447Z,20.97
2018-06-18T10:35:37.472Z,21.10
2018-06-18T10:36:37.424Z,21.17
2018-06-18T10:37:37.452Z,21.16
2018-06-18T10:38:37.417Z,21.18
2018-06-18T10:39:37.471Z,21.14
2018-06-18T10:40:37.472Z,21.20
2018-06-18T10:41:37.491Z,21.27
2018-06-18T10:42:37.390Z,21.32
2018-06-18T10:43:37.411Z,21.43
2018-06-18T10:44:37.386Z,21.46
2018-06-18T10:45:37.363Z,21.60
2018-06-18T10:46:37.393Z,21.67
2018-06-18T10:47:37.407Z,21.75
2018-06-18T10:48:37.362Z,21.79
2018-06-18T10:49:37.446Z,21.89
2018-06-18T10:50:37.341Z,21.80
2018-06-18T10:51:37.454Z,21.86
2018-06-18T10:52:37.366Z,21.89
2018-06-18T10:53:37.456Z,21.90
2018-06-18T10:54:37.497Z,21.97
2018-06-18T10:55:37.498Z,22.00
2018-06-18T10:56:37.363Z,22.02
2018-06-18T10:57:37.416Z,22.14
2018-06-18T10:58:37.435Z,22.21
2018-06-18T10:59:37.465Z,22.27
2018-06-18T11:00:37.458Z,22.13
2018-06-18T11:01:37.382Z,22.12
2018-06-18T11:02:37.528Z,22.13
2018-06-18T11:03:37.446Z,22.06
2018-06-18T11:04:37.426Z,22.04
2018-06-18T11:05:37.401Z,22.10
2018-06-18T11:06:37.468Z,22.08
2018-06-18T11:07:37.401Z,22.09
2018-06-18T11:08:37.471Z,22.13
2018-06-18T11:09:37.400Z,22.01
2018-06-18T11:10:37.469Z,22.10
2018-06-18T11:11:37.405Z,22.20
2018-06-18T11:12:37.444Z,22.19
2018-06-18T11:13:37.406Z,22.23
2018-06-18T11:14:37.480Z,22.10
2018-06-18T11:15:37.473Z,21.89
2018-06-18T11:16:37.673Z,21.89
2018-06-18T11:17:37.406Z,21.98
2018-06-18T11:18:37.478Z,21.93
2018-06-18T11:19:37.412Z,21.91
2018-06-18T11:20:37.473Z,21.86
2018-06-18T11:21:37.415Z,21.76
2018-06-18T11:22:37.411Z,21.75
2018-06-18T11:23:37.479Z,21.80
2018-06-18T11:24:37.495Z,21.72
2018-06-18T11:25:37.495Z,21.68
2018-06-18T11:26:37.549Z,21.61
2018-06-18T11:27:37.457Z,21.58
2018-06-18T11:28:37.395Z,21.54
2018-06-18T11:29:37.484Z,21.50
2018-06-18T11:30:37.383Z,21.53
2018-06-18T11:31:37.507Z,21.54
2018-06-18T11:32:37.553Z,21.56
2018-06-18T11:33:37.388Z,21.68
2018-06-18T11:34:37.422Z,21.68
2018-06-18T11:35:37.488Z,21.71
2018-06-18T11:36:37.426Z,21.83
2018-06-18T11:37:37.489Z,22.00
2018-06-18T11:38:37.423Z,22.08
2018-06-18T11:39:37.541Z,22.17
2018-06-18T11:40:37.464Z,22.25
2018-06-18T11:41:37.515Z,22.32
2018-06-18T11:42:37.426Z,22.41
2018-06-18T11:43:37.536Z,22.56
2018-06-18T11:44:37.495Z,22.82
2018-06-18T11:45:37.497Z,22.93
2018-06-18T11:46:37.494Z,23.11
2018-06-18T11:47:37.505Z,23.30
2018-06-18T11:48:37.494Z,23.37
2018-06-18T11:49:37.445Z,23.38
2018-06-18T11:50:37.496Z,23.50
2018-06-18T11:51:37.430Z,23.45
2018-06-18T11:52:37.537Z,23.56
2018-06-18T11:53:37.495Z,23.64
2018-06-18T11:54:37.432Z,23.72
2018-06-18T11:55:37.537Z,23.61
2018-06-18T11:56:37.477Z,23.39
2018-06-18T11:57:37.516Z,23.41
2018-06-18T11:58:37.458Z,23.35
2018-06-18T11:59:37.412Z,23.30
2018-06-18T12:00:37.466Z,23.17
2018-06-18T12:01:37.479Z,23.13
2018-06-18T12:02:37.468Z,23.04
2018-06-18T12:03:37.489Z,23.05
2018-06-18T12:04:37.525Z,23.06
2018-06-18T12:05:37.480Z,23.04
2018-06-18T12:06:37.420Z,23.02
2018-06-18T12:07:37.451Z,23.13
2018-06-18T12:08:37.547Z,23.11
2018-06-18T12:09:37.574Z,23.06
2018-06-18T12:10:37.528Z,22.87
2018-06-18T12:11:37.529Z,22.68
2018-06-18T12:12:37.449Z,22.65
2018-06-18T12:13:37.417Z,22.53
2018-06-18T12:14:37.496Z,22.35
2018-06-18T12:15:37.642Z,22.42
2018-06-18T12:16:37.473Z,22.45
2018-06-18T12:17:37.536Z,22.32
2018-06-18T12:18:37.498Z,22.28
2018-06-18T12:19:37.484Z,22.19
2018-06-18T12:20:37.435Z,22.17
2018-06-18T12:21:37.491Z,22.13
2018-06-18T12:22:37.490Z,22.20
2018-06-18T12:23:37.640Z,22.28
2018-06-18T12:24:37.520Z,22.34
2018-06-18T12:25:37.499Z,22.35
2018-06-18T12:26:37.479Z,22.39
2018-06-18T12:27:37.595Z,22.46
2018-06-18T12:28:37.480Z,22.54
2018-06-18T12:29:37.450Z,22.52
2018-06-18T12:30:37.549Z,22.46
2018-06-18T12:31:37.562Z,22.52
2018-06-18T12:32:37.544Z,22.71
2018-06-18T12:33:37.484Z,22.76
2018-06-18T12:34:37.550Z,22.80
2018-06-18T12:35:37.510Z,22.86
2018-06-18T12:36:37.559Z,22.91
2018-06-18T12:37:37.527Z,22.91
2018-06-18T12:38:37.487Z,22.87
2018-06-18T12:39:37.499Z,22.88
2018-06-18T12:40:37.532Z,22.98
2018-06-18T12:41:37.569Z,23.05
2018-06-18T12:42:37.535Z,23.16
2018-06-18T12:43:37.510Z,23.12
2018-06-18T12:44:37.509Z,23.23
2018-06-18T12:45:37.500Z,23.41
2018-06-18T12:46:37.515Z,23.30
2018-06-18T12:47:37.509Z,23.33
2018-06-18T12:48:37.496Z,23.34
2018-06-18T12:49:37.516Z,23.33
2018-06-18T12:50:37.447Z,23.30
2018-06-18T12:51:37.515Z,23.22
2018-06-18T12:52:37.574Z,23.09
2018-06-18T12:53:37.572Z,23.00